sensor_id;sensor_type;location;lat;lon;timestamp;pressure;altitude;pressure_sealevel;temperature;humidity
15066;BME280;7632;64.944;20.038;2024-01-10T00:00:05;99919.38;;;1.66;100.00
15066;BME280;7632;64.944;20.038;2024-01-10T00:02:32;99914.09;;;1.60;100.00
15066;BME280;7632;64.944;20.038;2024-01-10T00:04:59;99916.28;;;1.50;100.00
15066;BME280;7632;64.944;20.038;2024-01-10T00:07:26;99899.00;;;1.38;100.00
15066;BME280;7632;64.944;20.038;2024-01-10T00:09:53;99903.91;;;1.34;100.00
15066;BME280;7632;64.944;20.038;2024-01-10T00:12:19;99885.78;;;1.22;100.00
15066;BME280;7632;64.944;20.038;2024-01-10T00:14:47;99893.16;;;1.16;100.00
15066;BME280;7632;64.944;20.038;2024-01-10T00:17:14;99896.28;;;1.09;100.00
15066;BME280;7632;64.944;20.038;2024-01-10T00:19:41;99890.25;;;1.05;100.00
15066;BME280;7632;64.944;20.038;2024-01-10T05:13:34;99607.28;;;3.37;100.00
15066;BME280;7632;64.944;20.038;2024-01-10T05:16:00;99600.81;;;3.51;100.00
15066;BME280;7632;64.944;20.038;2024-01-10T05:18:27;99587.00;;;3.38;100.00
15066;BME280;7632;64.944;20.038;2024-01-10T05:20:54;99597.50;;;3.55;100.00
15066;BME280;7632;64.944;20.038;2024-01-10T05:23:21;99596.66;;;3.56;100.00
15066;BME280;7632;64.944;20.038;2024-01-10T05:25:48;99596.66;;;3.56;100.00
15066;BME280;7632;64.944;20.038;2024-01-10T05:28:14;99590.78;;;3.57;100.00
15066;BME280;7632;64.944;20.038;2024-01-10T05:30:43;99578.63;;;3.44;100.00
15066;BME280;7632;64.944;20.038;2024-01-10T05:33:09;99574.56;;;3.51;100.00
15066;BME280;7632;64.944;20.038;2024-01-10T05:35:36;99578.13;;;3.60;100.00
15066;BME280;7632;64.944;20.038;2024-01-10T05:38:03;99585.00;;;3.64;100.00
15066;BME280;7632;64.944;20.038;2024-01-10T05:40:30;99585.13;;;3.72;100.00
15066;BME280;7632;64.944;20.038;2024-01-10T05:42:57;99576.59;;;3.67;100.00
15066;BME280;7632;64.944;20.038;2024-01-10T05:45:24;99567.66;;;3.85;100.00
15066;BME280;7632;64.944;20.038;2024-01-10T05:47:53;99562.00;;;4.01;100.00
15066;BME280;7632;64.944;20.038;2024-01-10T05:50:19;99560.41;;;4.05;100.00
15066;BME280;7632;64.944;20.038;2024-01-10T05:52:46;99536.41;;;4.37;100.00
15066;BME280;7632;64.944;20.038;2024-01-10T05:55:13;99517.75;;;4.37;100.00
15066;BME280;7632;64.944;20.038;2024-01-10T05:57:40;99507.59;;;4.40;100.00
15066;BME280;7632;64.944;20.038;2024-01-10T06:00:08;99510.63;;;4.71;100.00
15066;BME280;7632;64.944;20.038;2024-01-10T06:02:36;99507.09;;;4.60;100.00
15066;BME280;7632;64.944;20.038;2024-01-10T06:05:07;99501.78;;;4.45;100.00
15066;BME280;7632;64.944;20.038;2024-01-10T06:07:34;99509.75;;;4.68;100.00
15066;BME280;7632;64.944;20.038;2024-01-10T06:10:01;99504.63;;;4.65;100.00
15066;BME280;7632;64.944;20.038;2024-01-10T06:12:28;99507.91;;;4.58;100.00
15066;BME280;7632;64.944;20.038;2024-01-10T06:14:54;99514.66;;;4.56;100.00
15066;BME280;7632;64.944;20.038;2024-01-10T06:17:23;99503.00;;;4.70;100.00
15066;BME280;7632;64.944;20.038;2024-01-10T06:19:50;99501.03;;;4.54;100.00
15066;BME280;7632;64.944;20.038;2024-01-10T06:22:18;99499.28;;;4.50;100.00
15066;BME280;7632;64.944;20.038;2024-01-10T06:24:50;99493.22;;;4.42;100.00
15066;BME280;7632;64.944;20.038;2024-01-10T06:27:17;99490.84;;;4.51;100.00
15066;BME280;7632;64.944;20.038;2024-01-10T06:29:44;99487.13;;;4.30;100.00
15066;BME280;7632;64.944;20.038;2024-01-10T06:32:11;99485.59;;;4.42;100.00
15066;BME280;7632;64.944;20.038;2024-01-10T06:34:39;99471.19;;;4.42;100.00
15066;BME280;7632;64.944;20.038;2024-01-10T06:37:06;99475.69;;;4.57;100.00
15066;BME280;7632;64.944;20.038;2024-01-10T06:39:35;99479.22;;;4.68;100.00
15066;BME280;7632;64.944;20.038;2024-01-10T06:42:02;99466.41;;;4.60;100.00
15066;BME280;7632;64.944;20.038;2024-01-10T06:44:31;99452.09;;;4.67;100.00
15066;BME280;7632;64.944;20.038;2024-01-10T06:46:59;99456.75;;;4.40;100.00
15066;BME280;7632;64.944;20.038;2024-01-10T06:49:25;99455.06;;;4.39;100.00
15066;BME280;7632;64.944;20.038;2024-01-10T06:51:52;99442.88;;;4.19;100.00
15066;BME280;7632;64.944;20.038;2024-01-10T06:54:19;99452.41;;;4.31;100.00
15066;BME280;7632;64.944;20.038;2024-01-10T06:56:47;99453.09;;;4.22;100.00
15066;BME280;7632;64.944;20.038;2024-01-10T06:59:14;99454.28;;;4.44;100.00
15066;BME280;7632;64.944;20.038;2024-01-10T07:01:41;99461.50;;;4.18;100.00
15066;BME280;7632;64.944;20.038;2024-01-10T07:04:08;99477.72;;;4.25;100.00
15066;BME280;7632;64.944;20.038;2024-01-10T07:06:35;99467.34;;;4.13;100.00
15066;BME280;7632;64.944;20.038;2024-01-10T07:09:01;99434.25;;;4.11;100.00
15066;BME280;7632;64.944;20.038;2024-01-10T07:11:30;99420.75;;;4.15;100.00
15066;BME280;7632;64.944;20.038;2024-01-10T07:13:58;99430.13;;;4.16;100.00
15066;BME280;7632;64.944;20.038;2024-01-10T07:16:26;99429.31;;;4.19;100.00
15066;BME280;7632;64.944;20.038;2024-01-10T07:18:53;99430.81;;;4.06;100.00
15066;BME280;7632;64.944;20.038;2024-01-10T07:21:20;99440.47;;;4.27;100.00
15066;BME280;7632;64.944;20.038;2024-01-10T07:23:47;99440.19;;;4.10;100.00
15066;BME280;7632;64.944;20.038;2024-01-10T07:26:15;99431.59;;;4.02;100.00
15066;BME280;7632;64.944;20.038;2024-01-10T07:28:42;99424.66;;;3.95;100.00
15066;BME280;7632;64.944;20.038;2024-01-10T07:31:11;99423.06;;;4.00;100.00
15066;BME280;7632;64.944;20.038;2024-01-10T07:33:38;99417.00;;;3.92;100.00
15066;BME280;7632;64.944;20.038;2024-01-10T07:36:05;99435.00;;;4.03;100.00
15066;BME280;7632;64.944;20.038;2024-01-10T07:38:32;99410.19;;;3.91;100.00
15066;BME280;7632;64.944;20.038;2024-01-10T07:40:59;99407.81;;;3.99;100.00
15066;BME280;7632;64.944;20.038;2024-01-10T07:43:26;99397.56;;;3.93;100.00
15066;BME280;7632;64.944;20.038;2024-01-10T07:45:53;99416.66;;;3.71;100.00
15066;BME280;7632;64.944;20.038;2024-01-10T07:48:21;99419.34;;;3.80;100.00
15066;BME280;7632;64.944;20.038;2024-01-10T07:50:48;99413.28;;;3.72;100.00
15066;BME280;7632;64.944;20.038;2024-01-10T07:53:15;99415.34;;;3.94;100.00
15066;BME280;7632;64.944;20.038;2024-01-10T07:55:41;99404.34;;;3.95;100.00
15066;BME280;7632;64.944;20.038;2024-01-10T07:58:08;99410.16;;;3.88;100.00
15066;BME280;7632;64.944;20.038;2024-01-10T08:00:35;99410.84;;;3.78;100.00
15066;BME280;7632;64.944;20.038;2024-01-10T08:03:02;99400.75;;;3.81;100.00
15066;BME280;7632;64.944;20.038;2024-01-10T08:05:30;99399.88;;;3.79;100.00
15066;BME280;7632;64.944;20.038;2024-01-10T08:07:57;99383.69;;;3.76;100.00
15066;BME280;7632;64.944;20.038;2024-01-10T08:10:24;99397.28;;;3.78;100.00
15066;BME280;7632;64.944;20.038;2024-01-10T11:15:20;99162.97;;;3.35;100.00
15066;BME280;7632;64.944;20.038;2024-01-10T11:18:07;99154.09;;;3.63;100.00
15066;BME280;7632;64.944;20.038;2024-01-10T11:20:53;99162.41;;;3.53;100.00
15066;BME280;7632;64.944;20.038;2024-01-10T11:23:42;99165.06;;;3.62;100.00
15066;BME280;7632;64.944;20.038;2024-01-10T11:26:11;99152.22;;;3.50;100.00
15066;BME280;7632;64.944;20.038;2024-01-10T11:28:40;99144.44;;;3.39;100.00
15066;BME280;7632;64.944;20.038;2024-01-10T11:31:08;99155.69;;;3.57;100.00
15066;BME280;7632;64.944;20.038;2024-01-10T11:33:36;99138.81;;;3.60;100.00
15066;BME280;7632;64.944;20.038;2024-01-10T11:36:11;99147.19;;;3.53;100.00
15066;BME280;7632;64.944;20.038;2024-01-10T11:38:43;99135.09;;;3.37;100.00
15066;BME280;7632;64.944;20.038;2024-01-10T11:41:11;99136.94;;;3.47;100.00
15066;BME280;7632;64.944;20.038;2024-01-10T11:43:38;99110.50;;;3.33;100.00
15066;BME280;7632;64.944;20.038;2024-01-10T11:46:05;99124.81;;;3.28;100.00
15066;BME280;7632;64.944;20.038;2024-01-10T11:48:34;99110.69;;;3.45;100.00
15066;BME280;7632;64.944;20.038;2024-01-10T11:51:01;99105.44;;;3.33;100.00
15066;BME280;7632;64.944;20.038;2024-01-10T11:53:40;99099.50;;;3.34;100.00
15066;BME280;7632;64.944;20.038;2024-01-10T11:56:12;99098.72;;;3.36;100.00
15066;BME280;7632;64.944;20.038;2024-01-10T11:58:54;99099.50;;;3.31;100.00
15066;BME280;7632;64.944;20.038;2024-01-10T12:01:21;99090.22;;;3.36;100.00
15066;BME280;7632;64.944;20.038;2024-01-10T12:03:51;99087.84;;;3.46;100.00
15066;BME280;7632;64.944;20.038;2024-01-10T12:06:19;99081.25;;;3.59;100.00
15066;BME280;7632;64.944;20.038;2024-01-10T12:08:47;99062.91;;;3.84;100.00
15066;BME280;7632;64.944;20.038;2024-01-10T12:11:14;99061.06;;;3.71;100.00
15066;BME280;7632;64.944;20.038;2024-01-10T12:13:42;99054.06;;;3.52;100.00
15066;BME280;7632;64.944;20.038;2024-01-10T12:16:10;99047.47;;;3.66;100.00
15066;BME280;7632;64.944;20.038;2024-01-10T12:18:36;99042.44;;;3.71;100.00
15066;BME280;7632;64.944;20.038;2024-01-10T12:21:05;99051.75;;;3.72;100.00
15066;BME280;7632;64.944;20.038;2024-01-10T12:23:34;99033.16;;;3.74;100.00
15066;BME280;7632;64.944;20.038;2024-01-10T12:26:01;99020.59;;;3.86;100.00
15066;BME280;7632;64.944;20.038;2024-01-10T12:28:30;99022.44;;;4.02;100.00
15066;BME280;7632;64.944;20.038;2024-01-10T12:30:58;99015.50;;;3.83;100.00
15066;BME280;7632;64.944;20.038;2024-01-10T12:33:25;99015.53;;;3.89;100.00
15066;BME280;7632;64.944;20.038;2024-01-10T12:36:07;99021.38;;;3.79;100.00
15066;BME280;7632;64.944;20.038;2024-01-10T12:38:35;99009.88;;;4.17;100.00
15066;BME280;7632;64.944;20.038;2024-01-10T12:41:03;99016.50;;;4.00;100.00
15066;BME280;7632;64.944;20.038;2024-01-10T12:43:30;99015.69;;;4.04;100.00
15066;BME280;7632;64.944;20.038;2024-01-10T12:46:05;99004.78;;;4.13;99.70
15066;BME280;7632;64.944;20.038;2024-01-10T12:48:32;99004.72;;;4.11;99.77
15066;BME280;7632;64.944;20.038;2024-01-10T12:51:02;99015.69;;;4.04;100.00
15066;BME280;7632;64.944;20.038;2024-01-10T12:53:33;99008.78;;;3.91;100.00
15066;BME280;7632;64.944;20.038;2024-01-10T12:56:01;99017.19;;;3.84;100.00
15066;BME280;7632;64.944;20.038;2024-01-10T12:58:28;99019.19;;;4.15;100.00
15066;BME280;7632;64.944;20.038;2024-01-10T13:00:54;99012.16;;;3.89;100.00
15066;BME280;7632;64.944;20.038;2024-01-10T13:03:22;99022.41;;;3.99;100.00
15066;BME280;7632;64.944;20.038;2024-01-10T13:05:49;99012.25;;;3.99;100.00
15066;BME280;7632;64.944;20.038;2024-01-10T13:08:16;99010.44;;;3.89;100.00
15066;BME280;7632;64.944;20.038;2024-01-10T13:10:44;99003.66;;;3.85;100.00
15066;BME280;7632;64.944;20.038;2024-01-10T13:13:13;99012.09;;;3.84;100.00
15066;BME280;7632;64.944;20.038;2024-01-10T13:15:39;99006.34;;;3.99;100.00
15066;BME280;7632;64.944;20.038;2024-01-10T13:18:07;99007.81;;;3.80;100.00
15066;BME280;7632;64.944;20.038;2024-01-10T13:20:35;99007.91;;;3.88;100.00
15066;BME280;7632;64.944;20.038;2024-01-10T13:23:03;98998.59;;;3.85;100.00
15066;BME280;7632;64.944;20.038;2024-01-10T13:25:30;98986.66;;;3.80;100.00
15066;BME280;7632;64.944;20.038;2024-01-10T13:27:58;98981.69;;;3.90;100.00
15066;BME280;7632;64.944;20.038;2024-01-10T13:30:26;98971.47;;;3.84;100.00
15066;BME280;7632;64.944;20.038;2024-01-10T13:32:53;98973.13;;;3.79;100.00
15066;BME280;7632;64.944;20.038;2024-01-10T13:35:20;98959.50;;;3.74;100.00
15066;BME280;7632;64.944;20.038;2024-01-10T13:37:48;98951.06;;;3.78;100.00
15066;BME280;7632;64.944;20.038;2024-01-10T13:40:14;98945.13;;;3.73;100.00
15066;BME280;7632;64.944;20.038;2024-01-10T13:42:42;98950.97;;;3.66;100.00
15066;BME280;7632;64.944;20.038;2024-01-10T13:45:10;98957.63;;;3.55;100.00
15066;BME280;7632;64.944;20.038;2024-01-10T13:47:38;98951.06;;;3.78;100.00
15066;BME280;7632;64.944;20.038;2024-01-10T13:50:06;98946.78;;;3.71;100.00
15066;BME280;7632;64.944;20.038;2024-01-10T13:52:34;98962.91;;;3.73;100.00
15066;BME280;7632;64.944;20.038;2024-01-10T13:55:01;98960.75;;;3.33;100.00
15066;BME280;7632;64.944;20.038;2024-01-10T13:57:30;98952.38;;;3.40;100.00
15066;BME280;7632;64.944;20.038;2024-01-10T13:59:57;98951.63;;;3.50;100.00
15066;BME280;7632;64.944;20.038;2024-01-10T14:02:26;98950.81;;;3.51;100.00
15066;BME280;7632;64.944;20.038;2024-01-10T14:04:53;98942.06;;;3.28;100.00
15066;BME280;7632;64.944;20.038;2024-01-10T14:07:22;98953.91;;;3.26;100.00
15066;BME280;7632;64.944;20.038;2024-01-10T14:09:49;98954.03;;;3.38;100.00
15066;BME280;7632;64.944;20.038;2024-01-10T14:12:16;98960.91;;;3.45;100.00
15066;BME280;7632;64.944;20.038;2024-01-10T14:14:43;98952.00;;;3.10;100.00
15066;BME280;7632;64.944;20.038;2024-01-10T14:17:10;98959.53;;;3.04;100.00
15066;BME280;7632;64.944;20.038;2024-01-10T14:19:38;98953.44;;;2.90;100.00
15066;BME280;7632;64.944;20.038;2024-01-10T14:22:05;98943.34;;;2.93;100.00
15066;BME280;7632;64.944;20.038;2024-01-10T14:24:32;98952.94;;;3.13;100.00
15066;BME280;7632;64.944;20.038;2024-01-10T14:26:59;98952.00;;;3.07;100.00
15066;BME280;7632;64.944;20.038;2024-01-10T14:29:25;98963.25;;;3.31;100.00
15066;BME280;7632;64.944;20.038;2024-01-10T14:31:52;98964.75;;;3.13;100.00
15066;BME280;7632;64.944;20.038;2024-01-10T14:34:19;98963.22;;;3.27;100.00
15066;BME280;7632;64.944;20.038;2024-01-10T14:36:48;98957.28;;;3.25;100.00
15066;BME280;7632;64.944;20.038;2024-01-10T14:39:14;98950.47;;;3.21;100.00
15066;BME280;7632;64.944;20.038;2024-01-10T14:41:41;98950.69;;;3.39;100.00
15066;BME280;7632;64.944;20.038;2024-01-10T14:44:08;98949.03;;;3.44;100.00
15066;BME280;7632;64.944;20.038;2024-01-10T14:46:35;98947.28;;;3.37;100.00
15066;BME280;7632;64.944;20.038;2024-01-10T14:49:02;98938.91;;;3.47;100.00
15066;BME280;7632;64.944;20.038;2024-01-10T14:51:29;98939.69;;;3.41;100.00
15066;BME280;7632;64.944;20.038;2024-01-10T14:53:57;98942.06;;;3.25;100.00
15066;BME280;7632;64.944;20.038;2024-01-10T14:56:24;98943.13;;;3.46;100.00
15066;BME280;7632;64.944;20.038;2024-01-10T14:58:51;98944.75;;;3.41;100.00
15066;BME280;7632;64.944;20.038;2024-01-10T15:01:17;98948.97;;;3.38;100.00
15066;BME280;7632;64.944;20.038;2024-01-10T15:03:45;98943.44;;;3.77;100.00
15066;BME280;7632;64.944;20.038;2024-01-10T15:06:12;98941.63;;;3.64;100.00
15066;BME280;7632;64.944;20.038;2024-01-10T15:08:40;98944.06;;;3.53;100.00
15066;BME280;7632;64.944;20.038;2024-01-10T15:11:09;98947.22;;;3.34;100.00
15066;BME280;7632;64.944;20.038;2024-01-10T15:13:36;98957.31;;;3.28;100.00
15066;BME280;7632;64.944;20.038;2024-01-10T15:16:04;98969.09;;;3.23;100.00
15066;BME280;7632;64.944;20.038;2024-01-10T15:18:31;98967.53;;;3.34;100.00
15066;BME280;7632;64.944;20.038;2024-01-10T15:20:59;98963.91;;;3.14;100.00
15066;BME280;7632;64.944;20.038;2024-01-10T15:23:25;98963.72;;;2.99;100.00
15066;BME280;7632;64.944;20.038;2024-01-10T15:25:52;98957.09;;;3.10;100.00
15066;BME280;7632;64.944;20.038;2024-01-10T15:28:20;98957.31;;;3.28;100.00
15066;BME280;7632;64.944;20.038;2024-01-10T15:30:47;98952.16;;;3.22;100.00
15066;BME280;7632;64.944;20.038;2024-01-10T15:33:16;98952.09;;;3.16;100.00
15066;BME280;7632;64.944;20.038;2024-01-10T15:35:43;98948.97;;;3.38;100.00
15066;BME280;7632;64.944;20.038;2024-01-10T15:38:11;98947.06;;;3.20;100.00
15066;BME280;7632;64.944;20.038;2024-01-10T15:40:38;98947.97;;;3.25;100.00
15066;BME280;7632;64.944;20.038;2024-01-10T15:43:07;98943.13;;;3.46;100.00
15066;BME280;7632;64.944;20.038;2024-01-10T15:45:35;98931.06;;;3.27;100.00
15066;BME280;7632;64.944;20.038;2024-01-10T15:48:02;98921.03;;;3.39;100.00
15066;BME280;7632;64.944;20.038;2024-01-10T15:50:31;98919.44;;;3.44;100.00
15066;BME280;7632;64.944;20.038;2024-01-10T15:52:59;98892.44;;;3.53;100.00
15066;BME280;7632;64.944;20.038;2024-01-10T15:55:25;98889.16;;;3.64;100.00
15066;BME280;7632;64.944;20.038;2024-01-10T15:57:52;98924.06;;;3.86;100.00
15066;BME280;7632;64.944;20.038;2024-01-10T16:00:19;98919.13;;;4.04;100.00
15066;BME280;7632;64.944;20.038;2024-01-10T16:02:47;98934.38;;;4.04;100.00
15066;BME280;7632;64.944;20.038;2024-01-10T16:05:14;98931.03;;;4.08;100.00
15066;BME280;7632;64.944;20.038;2024-01-10T16:07:42;98935.91;;;3.87;100.00
15066;BME280;7632;64.944;20.038;2024-01-10T16:10:09;98914.66;;;3.75;100.00
15066;BME280;7632;64.944;20.038;2024-01-10T16:12:38;98918.88;;;3.74;100.00
15066;BME280;7632;64.944;20.038;2024-01-10T16:15:05;98935.03;;;3.79;100.00
15066;BME280;7632;64.944;20.038;2024-01-10T16:17:33;98936.59;;;3.70;100.00
15066;BME280;7632;64.944;20.038;2024-01-10T16:20:01;98939.22;;;3.77;100.00
15066;BME280;7632;64.944;20.038;2024-01-10T16:22:31;98924.19;;;4.01;100.00
15066;BME280;7632;64.944;20.038;2024-01-10T16:24:58;98921.34;;;3.70;100.00
15066;BME280;7632;64.944;20.038;2024-01-10T16:27:25;98935.94;;;3.90;100.00
15066;BME280;7632;64.944;20.038;2024-01-10T19:53:00;99286.47;;;2.02;100.00
15066;BME280;7632;64.944;20.038;2024-01-10T19:55:28;99306.53;;;1.93;100.00
15066;BME280;7632;64.944;20.038;2024-01-10T19:57:55;99313.00;;;1.82;100.00
15066;BME280;7632;64.944;20.038;2024-01-10T20:00:22;99319.06;;;1.87;100.00
15066;BME280;7632;64.944;20.038;2024-01-10T20:02:49;99314.59;;;1.77;100.00
15066;BME280;7632;64.944;20.038;2024-01-10T20:05:17;99324.94;;;1.86;100.00
15066;BME280;7632;64.944;20.038;2024-01-10T20:07:44;99331.78;;;1.90;100.00
15066;BME280;7632;64.944;20.038;2024-01-10T20:10:12;99332.66;;;1.92;100.00
15066;BME280;7632;64.944;20.038;2024-01-10T20:12:39;99345.16;;;1.85;100.00
15066;BME280;7632;64.944;20.038;2024-01-10T20:15:06;99347.41;;;1.72;100.00
15066;BME280;7632;64.944;20.038;2024-01-10T20:17:33;99349.75;;;1.65;100.00
15066;BME280;7632;64.944;20.038;2024-01-10T20:20:00;99366.72;;;1.69;100.00
15066;BME280;7632;64.944;20.038;2024-01-10T20:22:27;99373.44;;;1.67;100.00
15066;BME280;7632;64.944;20.038;2024-01-10T20:24:53;99384.13;;;1.57;100.00
15066;BME280;7632;64.944;20.038;2024-01-10T20:27:22;99383.09;;;1.49;100.00
15066;BME280;7632;64.944;20.038;2024-01-10T20:29:48;99389.47;;;1.35;100.00
15066;BME280;7632;64.944;20.038;2024-01-10T20:32:15;99382.63;;;1.31;100.00
15066;BME280;7632;64.944;20.038;2024-01-10T20:34:42;99392.41;;;1.19;100.00
15066;BME280;7632;64.944;20.038;2024-01-10T20:37:12;99392.00;;;1.04;100.00
15066;BME280;7632;64.944;20.038;2024-01-10T20:39:41;99394.97;;;0.89;100.00
15066;BME280;7632;64.944;20.038;2024-01-10T20:42:08;99398.97;;;0.82;100.00
15066;BME280;7632;64.944;20.038;2024-01-10T20:44:36;99408.13;;;0.77;100.00
15066;BME280;7632;64.944;20.038;2024-01-10T20:47:04;99412.91;;;0.70;100.00
15066;BME280;7632;64.944;20.038;2024-01-10T20:49:31;99418.44;;;0.57;100.00
15066;BME280;7632;64.944;20.038;2024-01-10T20:51:57;99412.09;;;0.41;100.00
15066;BME280;7632;64.944;20.038;2024-01-10T20:54:24;99418.75;;;0.39;100.00
15066;BME280;7632;64.944;20.038;2024-01-10T20:56:51;99422.88;;;0.36;100.00
15066;BME280;7632;64.944;20.038;2024-01-10T20:59:18;99416.94;;;0.35;100.00
15066;BME280;7632;64.944;20.038;2024-01-10T21:01:46;99422.00;;;0.35;100.00
15066;BME280;7632;64.944;20.038;2024-01-10T21:04:12;99416.84;;;0.32;100.00
15066;BME280;7632;64.944;20.038;2024-01-10T21:06:39;99403.66;;;0.14;100.00
15066;BME280;7632;64.944;20.038;2024-01-10T21:09:06;99407.00;;;0.13;100.00
15066;BME280;7632;64.944;20.038;2024-01-10T21:11:33;99416.19;;;0.11;100.00
15066;BME280;7632;64.944;20.038;2024-01-10T21:14:00;99414.28;;;0.04;100.00
15066;BME280;7632;64.944;20.038;2024-01-10T21:16:27;99424.47;;;0.07;100.00
15066;BME280;7632;64.944;20.038;2024-01-10T21:18:55;99430.00;;;-0.05;100.00
15066;BME280;7632;64.944;20.038;2024-01-10T21:21:24;99432.50;;;-0.06;100.00
15066;BME280;7632;64.944;20.038;2024-01-10T21:23:51;99438.38;;;-0.06;100.00
15066;BME280;7632;64.944;20.038;2024-01-10T21:26:18;99435.53;;;-0.16;100.00
15066;BME280;7632;64.944;20.038;2024-01-10T21:28:45;99441.88;;;-0.27;100.00
15066;BME280;7632;64.944;20.038;2024-01-10T21:31:12;99448.31;;;-0.35;100.00
15066;BME280;7632;64.944;20.038;2024-01-10T21:33:39;99454.88;;;-0.40;100.00
15066;BME280;7632;64.944;20.038;2024-01-10T21:36:08;99453.38;;;-0.59;100.00
15066;BME280;7632;64.944;20.038;2024-01-10T21:38:35;99467.66;;;-0.59;100.00
15066;BME280;7632;64.944;20.038;2024-01-10T21:41:02;99477.53;;;-0.65;100.00
15066;BME280;7632;64.944;20.038;2024-01-10T21:43:29;99477.31;;;-0.71;100.00
15066;BME280;7632;64.944;20.038;2024-01-10T21:45:56;99490.09;;;-0.67;100.00
15066;BME280;7632;64.944;20.038;2024-01-10T21:48:22;99498.25;;;-0.50;100.00
15066;BME280;7632;64.944;20.038;2024-01-10T21:50:49;99500.09;;;-0.46;100.00
15066;BME280;7632;64.944;20.038;2024-01-10T21:53:18;99502.81;;;-0.40;100.00
15066;BME280;7632;64.944;20.038;2024-01-10T21:55:45;99507.03;;;-0.39;100.00
15066;BME280;7632;64.944;20.038;2024-01-10T21:58:12;99494.91;;;-0.49;100.00
15066;BME280;7632;64.944;20.038;2024-01-10T22:00:40;99506.97;;;-0.42;100.00
15066;BME280;7632;64.944;20.038;2024-01-10T22:03:06;99513.16;;;-0.33;100.00
15066;BME280;7632;64.944;20.038;2024-01-10T22:05:33;99513.91;;;-0.35;100.00
15066;BME280;7632;64.944;20.038;2024-01-10T22:08:00;99510.47;;;-0.37;100.00
15066;BME280;7632;64.944;20.038;2024-01-10T22:10:29;99515.75;;;-0.31;100.00
15066;BME280;7632;64.944;20.038;2024-01-10T22:12:56;99512.22;;;-0.36;100.00
15066;BME280;7632;64.944;20.038;2024-01-10T22:15:23;99515.94;;;-0.25;100.00
15066;BME280;7632;64.944;20.038;2024-01-10T22:17:51;99509.09;;;-0.29;100.00
15066;BME280;7632;64.944;20.038;2024-01-10T22:20:18;99520.78;;;-0.31;100.00
15066;BME280;7632;64.944;20.038;2024-01-10T22:22:45;99524.66;;;-0.17;100.00
15066;BME280;7632;64.944;20.038;2024-01-10T22:25:12;99523.28;;;-0.08;100.00
15066;BME280;7632;64.944;20.038;2024-01-10T22:27:40;99531.47;;;-0.15;100.00
15066;BME280;7632;64.944;20.038;2024-01-10T22:30:07;99525.47;;;-0.18;100.00
15066;BME280;7632;64.944;20.038;2024-01-10T22:32:35;99550.00;;;-0.14;100.00
15066;BME280;7632;64.944;20.038;2024-01-10T22:35:03;99542.34;;;-0.16;100.00
15066;BME280;7632;64.944;20.038;2024-01-10T22:37:30;99557.88;;;-0.05;100.00
15066;BME280;7632;64.944;20.038;2024-01-10T22:39:56;99569.75;;;-0.03;100.00
15066;BME280;7632;64.944;20.038;2024-01-10T22:42:23;99567.19;;;-0.04;100.00
15066;BME280;7632;64.944;20.038;2024-01-10T22:44:51;99577.13;;;-0.09;100.00
15066;BME280;7632;64.944;20.038;2024-01-10T22:47:18;99588.78;;;-0.12;100.00
15066;BME280;7632;64.944;20.038;2024-01-10T22:49:45;99589.69;;;-0.10;100.00
15066;BME280;7632;64.944;20.038;2024-01-10T22:52:12;99602.41;;;-0.07;100.00
15066;BME280;7632;64.944;20.038;2024-01-10T22:54:39;99611.63;;;-0.08;99.71
15066;BME280;7632;64.944;20.038;2024-01-10T22:57:06;99601.25;;;0.09;98.40
15066;BME280;7632;64.944;20.038;2024-01-10T22:59:34;99611.41;;;0.10;93.55
15066;BME280;7632;64.944;20.038;2024-01-10T23:02:02;99613.44;;;0.20;94.37
15066;BME280;7632;64.944;20.038;2024-01-10T23:04:29;99606.28;;;0.07;95.37
15066;BME280;7632;64.944;20.038;2024-01-10T23:06:56;99619.91;;;0.12;93.97
15066;BME280;7632;64.944;20.038;2024-01-10T23:09:22;99610.25;;;0.00;93.23
15066;BME280;7632;64.944;20.038;2024-01-10T23:11:49;99617.84;;;0.02;93.44
15066;BME280;7632;64.944;20.038;2024-01-10T23:14:16;99629.47;;;-0.03;92.61
15066;BME280;7632;64.944;20.038;2024-01-10T23:16:43;99622.59;;;-0.07;92.30
15066;BME280;7632;64.944;20.038;2024-01-10T23:19:11;99634.44;;;-0.06;91.63
15066;BME280;7632;64.944;20.038;2024-01-10T23:21:38;99640.41;;;-0.04;89.75
15066;BME280;7632;64.944;20.038;2024-01-10T23:24:05;99628.94;;;0.06;93.01
15066;BME280;7632;64.944;20.038;2024-01-10T23:26:34;99642.00;;;-0.06;93.07
15066;BME280;7632;64.944;20.038;2024-01-10T23:29:01;99650.75;;;-0.20;95.40
15066;BME280;7632;64.944;20.038;2024-01-10T23:31:28;99644.53;;;-0.06;94.84
15066;BME280;7632;64.944;20.038;2024-01-10T23:33:55;99647.31;;;-0.22;96.34
15066;BME280;7632;64.944;20.038;2024-01-10T23:36:23;99654.00;;;-0.23;96.69
15066;BME280;7632;64.944;20.038;2024-01-10T23:38:50;99655.16;;;-0.37;98.49
15066;BME280;7632;64.944;20.038;2024-01-10T23:41:17;99663.81;;;-0.52;98.46
15066;BME280;7632;64.944;20.038;2024-01-10T23:43:44;99663.69;;;-0.55;100.00
15066;BME280;7632;64.944;20.038;2024-01-10T23:46:10;99669.88;;;-0.69;100.00
15066;BME280;7632;64.944;20.038;2024-01-10T23:48:37;99667.50;;;-0.87;100.00
15066;BME280;7632;64.944;20.038;2024-01-10T23:51:04;99670.69;;;-0.91;100.00
15066;BME280;7632;64.944;20.038;2024-01-10T23:53:32;99685.59;;;-0.97;100.00
15066;BME280;7632;64.944;20.038;2024-01-10T23:55:59;99683.63;;;-1.04;100.00
